createdAt,value
2023-03-06T00:00:54.700Z,2.64
2023-03-06T00:05:59.387Z,2.64
2023-03-06T00:11:02.244Z,2.70
2023-03-06T00:16:07.015Z,2.62
2023-03-06T00:21:11.419Z,2.60
2023-03-06T00:26:14.235Z,2.94
2023-03-06T00:31:18.368Z,2.83
2023-03-06T00:36:22.564Z,2.73
2023-03-06T00:41:25.356Z,2.61
2023-03-06T00:46:28.160Z,2.86
2023-03-06T00:51:33.305Z,2.68
2023-03-06T00:56:36.498Z,2.70
2023-03-06T01:01:39.624Z,2.76
2023-03-06T01:06:43.947Z,2.80
2023-03-06T01:11:46.891Z,2.81
2023-03-06T01:16:49.899Z,2.71
2023-03-06T01:21:54.615Z,2.44
2023-03-06T01:26:57.471Z,2.29
2023-03-06T01:32:00.340Z,2.56
2023-03-06T01:37:04.573Z,2.53
2023-03-06T01:42:07.859Z,2.51
2023-03-06T01:47:10.661Z,2.47
2023-03-06T01:52:19.905Z,2.20
2023-03-06T01:57:25.099Z,2.28
2023-03-06T02:02:28.241Z,2.15
2023-03-06T02:07:33.238Z,2.04
2023-03-06T02:12:37.522Z,2.19
2023-03-06T02:17:41.092Z,2.33
2023-03-06T02:22:53.327Z,2.01
2023-03-06T02:27:57.478Z,2.05
2023-03-06T02:33:00.490Z,2.11
2023-03-06T02:38:07.920Z,1.82
2023-03-06T02:43:13.452Z,1.93
2023-03-06T02:48:17.694Z,1.95
2023-03-06T02:53:22.685Z,2.05
2023-03-06T02:58:26.890Z,1.92
2023-03-06T03:03:29.882Z,1.88
2023-03-06T03:08:34.501Z,1.91
2023-03-06T03:13:40.664Z,1.86
2023-03-06T03:18:48.186Z,1.77
2023-03-06T03:23:53.174Z,1.73
2023-03-06T03:28:57.378Z,1.90
2023-03-06T03:34:00.946Z,2.04
2023-03-06T03:39:05.935Z,2.08
2023-03-06T03:44:10.313Z,2.07
2023-03-06T03:49:13.193Z,1.99
2023-03-06T03:54:16.118Z,1.97
2023-03-06T03:59:24.093Z,1.89
2023-03-06T04:05:02.191Z,1.82
2023-03-06T04:10:05.879Z,1.84
2023-03-06T04:15:11.093Z,1.88
2023-03-06T04:20:15.487Z,1.86
2023-03-06T04:25:19.317Z,1.84
2023-03-06T04:30:24.674Z,1.79
2023-03-06T04:35:28.195Z,1.73
2023-03-06T04:40:37.334Z,1.52
2023-03-06T04:45:42.187Z,1.46
2023-03-06T04:50:45.804Z,1.40
2023-03-06T04:55:48.685Z,1.42
2023-03-06T05:00:53.117Z,1.30
2023-03-06T05:05:55.920Z,1.33
2023-03-06T05:11:01.612Z,1.55
2023-03-06T05:16:07.671Z,1.57
2023-03-06T05:21:10.507Z,1.71
2023-03-06T05:26:15.128Z,1.65
2023-03-06T05:31:19.369Z,1.69
2023-03-06T05:36:22.416Z,1.30
2023-03-06T05:41:25.163Z,1.50
2023-03-06T05:46:29.369Z,1.39
2023-03-06T05:51:32.189Z,0.92
2023-03-06T05:56:34.987Z,1.25
2023-03-06T06:01:39.075Z,1.15
2023-03-06T06:06:41.862Z,1.39
2023-03-06T06:11:44.669Z,1.04
2023-03-06T06:16:49.119Z,1.31
2023-03-06T06:21:54.325Z,1.40
2023-03-06T06:26:58.625Z,1.35
2023-03-06T06:32:02.883Z,1.39
2023-03-06T06:37:05.747Z,1.16
2023-03-06T06:42:29.322Z,1.24
2023-03-06T06:47:34.347Z,1.21
2023-03-06T06:52:37.266Z,1.60
2023-03-06T06:57:41.236Z,1.76
2023-03-06T07:02:49.064Z,1.39
2023-03-06T07:07:51.968Z,0.99
2023-03-06T07:12:56.504Z,1.67
2023-03-06T07:18:01.325Z,1.52
2023-03-06T07:23:04.268Z,1.66
2023-03-06T07:28:07.613Z,1.54
2023-03-06T07:33:11.866Z,1.30
2023-03-06T07:38:14.638Z,1.42
2023-03-06T07:43:19.626Z,1.45
2023-03-06T07:48:31.647Z,1.47
2023-03-06T07:53:35.173Z,1.75
2023-03-06T07:58:38.718Z,1.60
2023-03-06T08:03:43.319Z,1.43
2023-03-06T08:08:47.732Z,1.71
2023-03-06T08:13:52.575Z,1.09
2023-03-06T08:18:57.653Z,1.68
2023-03-06T08:24:00.444Z,1.28
2023-03-06T08:29:03.657Z,1.67
2023-03-06T08:34:09.379Z,1.62
2023-03-06T08:39:13.061Z,1.32
2023-03-06T08:44:15.914Z,1.32
2023-03-06T08:49:20.038Z,1.49
2023-03-06T08:54:22.754Z,0.96
2023-03-06T08:59:25.714Z,1.36
2023-03-06T09:04:32.007Z,1.62
2023-03-06T09:09:34.778Z,1.55
2023-03-06T09:14:37.491Z,1.50
2023-03-06T09:19:41.597Z,2.19
2023-03-06T09:24:44.298Z,1.70
2023-03-06T09:29:47.048Z,0.95
2023-03-06T09:34:51.536Z,1.48
2023-03-06T09:39:54.328Z,1.73
2023-03-06T09:45:00.050Z,1.72
2023-03-06T09:50:24.990Z,1.35
2023-03-06T09:55:31.844Z,1.29
2023-03-06T10:00:39.455Z,1.13
2023-03-06T10:05:48.276Z,0.85
2023-03-06T10:10:59.468Z,1.46
2023-03-06T10:16:12.291Z,2.39
2023-03-06T10:21:31.230Z,2.20
2023-03-06T10:26:40.974Z,1.40
2023-03-06T10:31:49.277Z,1.90
2023-03-06T10:36:53.727Z,1.79
2023-03-06T10:41:56.672Z,1.77
2023-03-06T10:46:59.479Z,2.19
2023-03-06T10:52:07.740Z,2.41
2023-03-06T10:57:25.685Z,2.33
2023-03-06T11:02:31.490Z,3.06
2023-03-06T11:07:36.856Z,3.06
2023-03-06T11:12:41.778Z,2.90
2023-03-06T11:17:52.033Z,3.23
2023-03-06T11:23:03.918Z,4.16
2023-03-06T11:28:13.836Z,4.26
2023-03-06T11:33:23.432Z,3.42
2023-03-06T11:38:37.162Z,3.20
2023-03-06T11:43:50.763Z,3.50
2023-03-06T11:49:01.987Z,3.05
2023-03-06T11:54:06.361Z,4.06
2023-03-06T11:59:25.127Z,4.58
2023-03-06T12:04:47.055Z,4.94
2023-03-06T12:09:56.812Z,4.65
2023-03-06T12:15:16.078Z,4.58
2023-03-06T12:20:33.277Z,5.00
2023-03-06T12:25:38.625Z,5.14
2023-03-06T12:30:58.722Z,6.14
2023-03-06T12:36:17.271Z,5.85
2023-03-06T12:41:31.659Z,6.94
2023-03-06T12:46:38.403Z,7.00
2023-03-06T12:51:44.144Z,6.07
2023-03-06T12:56:49.702Z,5.36
2023-03-06T13:02:08.434Z,5.25
2023-03-06T13:07:26.232Z,5.30
2023-03-06T13:12:43.335Z,5.35
2023-03-06T13:17:46.212Z,6.43
2023-03-06T13:22:49.073Z,10.65
2023-03-06T13:28:04.254Z,9.65
2023-03-06T13:33:45.725Z,12.27
2023-03-06T13:38:59.958Z,13.59
2023-03-06T13:44:30.668Z,11.41
2023-03-06T13:49:34.923Z,14.68
2023-03-06T13:54:49.812Z,14.29
2023-03-06T14:00:32.323Z,11.79
2023-03-06T14:05:43.237Z,9.42
2023-03-06T14:10:48.123Z,8.20
2023-03-06T14:15:53.098Z,7.25
2023-03-06T14:21:00.356Z,7.69
2023-03-06T14:26:15.031Z,10.49
2023-03-06T14:31:20.230Z,11.40
2023-03-06T14:36:29.618Z,10.33
2023-03-06T14:41:34.746Z,8.82
2023-03-06T14:46:37.558Z,7.13
2023-03-06T14:51:44.805Z,7.09
2023-03-06T14:56:49.857Z,6.75
2023-03-06T15:01:57.990Z,6.66
2023-03-06T15:07:02.379Z,6.76
2023-03-06T15:12:07.973Z,7.23
2023-03-06T15:17:33.210Z,6.89
2023-03-06T15:22:38.873Z,6.83
2023-03-06T15:27:41.779Z,7.16
2023-03-06T15:32:44.568Z,6.82
2023-03-06T15:37:48.679Z,6.39
2023-03-06T15:42:51.987Z,6.02
2023-03-06T15:47:56.256Z,5.84
2023-03-06T15:53:00.379Z,6.07
2023-03-06T15:58:04.651Z,5.21
2023-03-06T16:03:07.439Z,5.08
2023-03-06T16:08:14.724Z,4.58
2023-03-06T16:13:21.900Z,4.74
2023-03-06T16:18:24.975Z,4.20
2023-03-06T16:23:29.095Z,4.17
2023-03-06T16:28:33.668Z,4.34
2023-03-06T16:33:36.589Z,4.40
2023-03-06T16:38:40.961Z,4.11
2023-03-06T16:43:43.834Z,4.16
2023-03-06T16:48:47.078Z,3.93
2023-03-06T16:53:51.866Z,3.87
2023-03-06T16:58:54.616Z,3.59
2023-03-06T17:03:57.442Z,3.48
2023-03-06T17:09:01.723Z,3.60
2023-03-06T17:14:04.460Z,3.54
2023-03-06T17:19:07.400Z,3.54
2023-03-06T17:24:11.521Z,3.46
2023-03-06T17:29:14.279Z,3.50
2023-03-06T17:34:17.644Z,3.47
2023-03-06T17:39:21.898Z,3.44
2023-03-06T17:44:24.860Z,3.31
2023-03-06T17:49:27.941Z,3.14
2023-03-06T17:54:33.192Z,3.17
2023-03-06T17:59:36.024Z,3.08
2023-03-06T18:04:38.923Z,3.00
2023-03-06T18:09:44.029Z,3.00
2023-03-06T18:14:48.612Z,2.99
2023-03-06T18:19:52.300Z,2.92
2023-03-06T18:24:56.587Z,2.86
2023-03-06T18:29:59.518Z,2.81
2023-03-06T18:35:02.361Z,2.79
2023-03-06T18:40:07.894Z,2.78
2023-03-06T18:45:12.753Z,2.74
2023-03-06T18:50:17.478Z,2.80
2023-03-06T18:55:21.813Z,2.73
2023-03-06T19:00:25.457Z,2.67
2023-03-06T19:05:28.338Z,2.65
2023-03-06T19:10:35.187Z,2.52
2023-03-06T19:15:44.041Z,2.40
2023-03-06T19:20:46.917Z,2.33
2023-03-06T19:26:09.526Z,2.47
2023-03-06T19:31:13.983Z,2.34
2023-03-06T19:36:23.063Z,2.38
2023-03-06T19:41:28.402Z,2.37
2023-03-06T19:46:31.924Z,2.33
2023-03-06T19:51:34.719Z,2.15
2023-03-06T19:56:39.282Z,2.29
2023-03-06T20:01:42.247Z,2.08
2023-03-06T20:06:50.235Z,2.08
2023-03-06T20:11:54.540Z,1.95
2023-03-06T20:16:57.501Z,2.20
2023-03-06T20:22:00.354Z,2.24
2023-03-06T20:27:04.758Z,2.38
2023-03-06T20:32:07.559Z,2.34
2023-03-06T20:37:11.162Z,2.37
2023-03-06T20:42:15.332Z,2.23
2023-03-06T20:47:18.214Z,2.25
2023-03-06T20:52:20.955Z,1.97
2023-03-06T20:57:25.084Z,2.08
2023-03-06T21:02:27.811Z,1.97
2023-03-06T21:07:30.568Z,1.42
2023-03-06T21:12:34.662Z,1.81
2023-03-06T21:17:37.462Z,1.77
2023-03-06T21:22:40.506Z,1.51
2023-03-06T21:27:44.550Z,1.43
2023-03-06T21:32:47.575Z,1.44
2023-03-06T21:37:50.297Z,1.68
2023-03-06T21:42:54.381Z,1.76
2023-03-06T21:47:57.164Z,1.80
2023-03-06T21:52:59.835Z,1.61
2023-03-06T21:58:03.929Z,1.12
2023-03-06T22:03:06.694Z,1.49
2023-03-06T22:08:09.582Z,1.14
2023-03-06T22:13:13.835Z,0.95
2023-03-06T22:18:16.701Z,1.33
2023-03-06T22:23:19.483Z,1.68
2023-03-06T22:28:23.616Z,1.40
2023-03-06T22:33:26.424Z,1.71
2023-03-06T22:38:29.463Z,1.20
2023-03-06T22:43:33.987Z,1.27
2023-03-06T22:48:37.055Z,1.43
2023-03-06T22:53:40.629Z,1.63
2023-03-06T22:58:45.091Z,1.21
2023-03-06T23:03:49.910Z,1.54
2023-03-06T23:08:55.164Z,1.11
2023-03-06T23:13:59.788Z,1.60
2023-03-06T23:19:21.397Z,1.54
2023-03-06T23:24:42.564Z,1.54
2023-03-06T23:29:50.333Z,1.14
2023-03-06T23:34:53.134Z,1.90
2023-03-06T23:39:56.023Z,1.19
2023-03-06T23:45:00.416Z,1.12
2023-03-06T23:50:03.175Z,1.15
2023-03-06T23:55:06.796Z,0.92
